Seven Mile Ford, Virginia
Current Conditions -  °F | °C
As of 2:15 PM on Saturday 25 Oct 2014 (Local Time) from KMKJ Reporting Station
Clear Clear  
Wind Chill: 63°   Ceiling: Unl
Heat Index: 63°   Visibility: 10mi
Dew Point: 44°   Wind: 13mph
Humidity: 51%   Direction: 240°WSW
Pressure: 30.04"   Gusts: 17mph
Location:  36.81°N, 81.63°W
Report Text: KMKJ 251815Z AUTO 24011G15KT 10SM CLR 17/07 A3004 RMK AO2 T01700068
Loading
Personal Weather Stations






























Interactive Weather Map
Tropical Storm Tracking
New forecast layout! Learn more

10-Day Weather Forecast

Advertisements
Track Severe Weather on mobile